createdAt,value
2023-02-20T00:00:40.315Z,99.45
2023-02-20T00:03:07.951Z,99.29
2023-02-20T00:05:35.437Z,99.30
2023-02-20T00:08:02.599Z,99.45
2023-02-20T00:10:29.640Z,99.88
2023-02-20T00:12:56.573Z,99.82
2023-02-20T00:15:23.829Z,100.00
2023-02-20T00:17:50.792Z,100.00
2023-02-20T00:20:23.296Z,99.71
2023-02-20T00:22:51.625Z,99.38
2023-02-20T00:25:20.162Z,99.35
2023-02-20T00:27:47.858Z,99.49
2023-02-20T00:30:23.966Z,99.59
2023-02-20T00:32:54.146Z,99.79
2023-02-20T00:35:22.496Z,98.63
2023-02-20T00:37:51.011Z,99.33
2023-02-20T00:40:20.925Z,99.24
2023-02-20T00:42:47.982Z,99.25
2023-02-20T00:45:17.019Z,99.66
2023-02-20T00:47:44.505Z,99.53
2023-02-20T00:50:14.733Z,99.62
2023-02-20T00:52:41.757Z,100.00
2023-02-20T00:55:09.068Z,100.00
2023-02-20T00:57:36.017Z,100.00
2023-02-20T01:00:05.278Z,100.00
2023-02-20T01:02:32.153Z,100.00
2023-02-20T01:04:59.121Z,100.00
2023-02-20T01:07:26.095Z,100.00
2023-02-20T01:09:53.123Z,100.00
2023-02-20T01:12:20.113Z,100.00
2023-02-20T01:14:47.135Z,100.00
2023-02-20T01:17:14.831Z,100.00
2023-02-20T01:19:42.823Z,100.00
2023-02-20T01:22:09.716Z,99.80
2023-02-20T01:24:36.646Z,100.00
2023-02-20T01:27:03.877Z,100.00
2023-02-20T01:29:31.088Z,100.00
2023-02-20T01:31:58.172Z,100.00
2023-02-20T01:34:25.159Z,100.00
2023-02-20T01:36:55.127Z,100.00
2023-02-20T01:39:28.671Z,100.00
2023-02-20T01:42:00.893Z,100.00
2023-02-20T01:44:32.313Z,100.00
2023-02-20T01:47:01.180Z,100.00
2023-02-20T01:49:49.437Z,100.00
2023-02-20T01:52:23.423Z,100.00
2023-02-20T01:55:03.529Z,100.00
2023-02-20T01:57:33.752Z,100.00
2023-02-20T02:00:12.427Z,100.00
2023-02-20T02:02:48.539Z,100.00
2023-02-20T02:05:19.195Z,100.00
2023-02-20T02:07:46.447Z,100.00
2023-02-20T02:10:17.676Z,100.00
2023-02-20T02:12:51.999Z,100.00
2023-02-20T02:15:22.983Z,100.00
2023-02-20T02:18:22.197Z,100.00
2023-02-20T02:21:26.780Z,100.00
2023-02-20T02:24:26.696Z,100.00
2023-02-20T02:27:34.760Z,100.00
2023-02-20T02:30:42.203Z,100.00
2023-02-20T02:33:54.006Z,100.00
2023-02-20T02:36:23.904Z,100.00
2023-02-20T02:39:05.733Z,100.00
2023-02-20T02:41:40.445Z,100.00
2023-02-20T02:44:37.314Z,100.00
2023-02-20T02:47:21.060Z,100.00
2023-02-20T02:50:15.661Z,100.00
2023-02-20T02:52:49.813Z,100.00
2023-02-20T02:55:20.567Z,100.00
2023-02-20T02:57:47.508Z,100.00
2023-02-20T03:00:20.366Z,100.00
2023-02-20T03:02:59.429Z,100.00
2023-02-20T03:05:46.507Z,100.00
2023-02-20T03:08:33.334Z,100.00
2023-02-20T03:11:16.995Z,100.00
2023-02-20T03:14:25.490Z,100.00
2023-02-20T03:17:10.448Z,100.00
2023-02-20T03:19:49.779Z,100.00
2023-02-20T03:22:53.156Z,100.00
2023-02-20T03:25:34.237Z,100.00
2023-02-20T03:28:19.420Z,100.00
2023-02-20T03:31:11.969Z,100.00
2023-02-20T03:34:10.888Z,100.00
2023-02-20T03:37:31.594Z,100.00
2023-02-20T03:40:23.394Z,100.00
2023-02-20T03:43:16.686Z,100.00
2023-02-20T03:45:46.141Z,100.00
2023-02-20T03:48:23.163Z,100.00
2023-02-20T03:50:50.281Z,100.00
2023-02-20T03:53:17.534Z,100.00
2023-02-20T03:55:46.439Z,100.00
2023-02-20T03:58:16.196Z,100.00
2023-02-20T04:00:48.364Z,100.00
2023-02-20T04:03:25.377Z,100.00
2023-02-20T04:05:55.977Z,100.00
2023-02-20T04:08:37.075Z,100.00
2023-02-20T04:11:11.882Z,100.00
2023-02-20T04:13:40.564Z,100.00
2023-02-20T04:16:08.900Z,100.00
2023-02-20T04:18:35.920Z,100.00
2023-02-20T04:21:09.122Z,100.00
2023-02-20T04:23:41.073Z,100.00
2023-02-20T04:26:17.817Z,100.00
2023-02-20T04:28:47.111Z,100.00
2023-02-20T04:31:16.328Z,100.00
2023-02-20T04:33:44.043Z,100.00
2023-02-20T04:36:12.080Z,100.00
2023-02-20T04:38:39.222Z,100.00
2023-02-20T04:41:06.085Z,100.00
2023-02-20T04:43:33.146Z,100.00
2023-02-20T04:46:00.622Z,100.00
2023-02-20T04:48:27.697Z,100.00
2023-02-20T04:50:54.796Z,100.00
2023-02-20T04:53:21.719Z,100.00
2023-02-20T04:55:48.774Z,100.00
2023-02-20T04:58:15.964Z,100.00
2023-02-20T05:00:42.930Z,100.00
2023-02-20T05:03:10.143Z,100.00
2023-02-20T05:05:36.997Z,100.00
2023-02-20T05:08:08.746Z,100.00
2023-02-20T05:10:36.577Z,100.00
2023-02-20T05:13:03.886Z,100.00
2023-02-20T05:15:31.730Z,100.00
2023-02-20T05:18:00.278Z,100.00
2023-02-20T05:20:47.517Z,100.00
2023-02-20T05:23:14.433Z,100.00
2023-02-20T05:25:41.668Z,100.00
2023-02-20T05:28:08.680Z,100.00
2023-02-20T05:30:35.702Z,100.00
2023-02-20T05:33:02.588Z,100.00
2023-02-20T05:35:29.450Z,100.00
2023-02-20T05:37:56.317Z,100.00
2023-02-20T05:40:23.495Z,100.00
2023-02-20T05:42:50.446Z,100.00
2023-02-20T05:45:18.967Z,100.00
2023-02-20T05:47:45.836Z,100.00
2023-02-20T05:50:12.729Z,100.00
2023-02-20T05:52:42.133Z,100.00
2023-02-20T05:55:09.338Z,100.00
2023-02-20T05:57:36.420Z,100.00
2023-02-20T06:00:04.512Z,100.00
2023-02-20T06:02:34.783Z,100.00
2023-02-20T06:05:01.805Z,100.00
2023-02-20T06:07:28.770Z,100.00
2023-02-20T06:09:58.074Z,100.00
2023-02-20T06:12:26.483Z,100.00
2023-02-20T06:14:53.448Z,100.00
2023-02-20T06:17:21.003Z,100.00
2023-02-20T06:19:47.846Z,100.00
2023-02-20T06:22:16.742Z,100.00
2023-02-20T06:24:47.834Z,100.00
2023-02-20T06:27:17.232Z,100.00
2023-02-20T06:29:47.537Z,100.00
2023-02-20T06:32:14.611Z,100.00
2023-02-20T06:34:41.644Z,100.00
2023-02-20T06:37:08.669Z,100.00
2023-02-20T06:39:35.953Z,100.00
2023-02-20T06:42:03.185Z,100.00
2023-02-20T06:44:33.421Z,100.00
2023-02-20T06:47:00.968Z,100.00
2023-02-20T06:49:27.857Z,100.00
2023-02-20T06:51:55.380Z,100.00
2023-02-20T06:54:22.383Z,100.00
2023-02-20T06:56:49.337Z,100.00
2023-02-20T06:59:16.304Z,100.00
2023-02-20T07:01:43.994Z,100.00
2023-02-20T07:04:21.938Z,100.00
2023-02-20T07:06:49.205Z,100.00
2023-02-20T07:09:17.288Z,100.00
2023-02-20T07:11:44.287Z,100.00
2023-02-20T07:14:11.337Z,100.00
2023-02-20T07:16:38.300Z,100.00
2023-02-20T07:19:05.256Z,100.00
2023-02-20T07:21:32.224Z,100.00
2023-02-20T07:24:00.440Z,100.00
2023-02-20T07:26:29.875Z,100.00
2023-02-20T07:29:01.083Z,100.00
2023-02-20T07:31:28.906Z,100.00
2023-02-20T07:33:55.863Z,100.00
2023-02-20T07:36:23.061Z,100.00
2023-02-20T07:38:59.851Z,100.00
2023-02-20T07:41:31.499Z,100.00
2023-02-20T07:43:59.195Z,100.00
2023-02-20T07:46:27.592Z,100.00
2023-02-20T07:48:54.751Z,100.00
2023-02-20T07:51:21.708Z,100.00
2023-02-20T07:53:50.922Z,100.00
2023-02-20T07:56:19.945Z,100.00
2023-02-20T07:58:47.169Z,100.00
2023-02-20T08:01:14.445Z,100.00
2023-02-20T08:03:41.637Z,100.00
2023-02-20T08:06:08.591Z,100.00
2023-02-20T08:08:35.959Z,100.00
2023-02-20T08:11:09.206Z,100.00
2023-02-20T08:13:37.988Z,100.00
2023-02-20T08:16:05.429Z,100.00
2023-02-20T08:18:32.654Z,100.00
2023-02-20T08:20:59.622Z,99.42
2023-02-20T08:23:26.820Z,99.24
2023-02-20T08:25:53.924Z,98.83
2023-02-20T08:28:21.738Z,98.94
2023-02-20T08:30:49.680Z,97.84
2023-02-20T08:33:16.693Z,97.81
2023-02-20T08:35:44.915Z,96.50
2023-02-20T08:38:37.521Z,95.99
2023-02-20T08:41:07.625Z,96.40
2023-02-20T08:43:39.083Z,95.47
2023-02-20T08:46:07.753Z,95.22
2023-02-20T08:48:35.391Z,95.66
2023-02-20T08:51:02.461Z,94.56
2023-02-20T08:53:29.536Z,94.78
2023-02-20T08:55:57.035Z,94.83
2023-02-20T08:58:25.912Z,94.56
2023-02-20T09:00:54.769Z,94.33
2023-02-20T09:03:21.856Z,94.51
2023-02-20T09:05:49.210Z,93.37
2023-02-20T09:08:16.362Z,94.50
2023-02-20T09:10:43.906Z,93.05
2023-02-20T09:13:11.437Z,93.79
2023-02-20T09:15:40.045Z,92.88
2023-02-20T09:18:14.192Z,91.90
2023-02-20T09:20:43.615Z,92.31
2023-02-20T09:23:10.702Z,90.93
2023-02-20T09:25:37.687Z,90.11
2023-02-20T09:28:05.037Z,90.66
2023-02-20T09:30:32.079Z,89.73
2023-02-20T09:32:59.154Z,89.50
2023-02-20T09:35:31.240Z,88.21
2023-02-20T09:37:58.779Z,88.78
2023-02-20T09:40:29.415Z,87.78
2023-02-20T09:43:36.303Z,86.73
2023-02-20T09:46:17.106Z,88.50
2023-02-20T09:49:09.065Z,86.51
2023-02-20T09:51:41.818Z,87.26
2023-02-20T09:54:26.781Z,86.16
2023-02-20T09:57:00.968Z,86.17
2023-02-20T09:59:33.943Z,86.41
2023-02-20T10:02:19.219Z,86.87
2023-02-20T10:05:01.399Z,85.89
2023-02-20T10:07:34.350Z,84.51
2023-02-20T10:10:21.093Z,83.84
2023-02-20T10:13:00.639Z,84.40
2023-02-20T10:15:39.352Z,84.76
2023-02-20T10:18:42.953Z,85.72
2023-02-20T10:21:49.770Z,85.54
2023-02-20T10:24:42.950Z,84.87
2023-02-20T10:27:42.388Z,83.21
2023-02-20T10:30:20.681Z,82.82
2023-02-20T10:32:54.541Z,84.14
2023-02-20T10:35:41.769Z,84.75
2023-02-20T10:38:14.285Z,83.63
2023-02-20T10:40:53.978Z,82.42
2023-02-20T10:43:51.000Z,82.64
2023-02-20T10:46:51.424Z,82.40
2023-02-20T10:49:53.445Z,81.73
2023-02-20T10:52:34.438Z,80.58
2023-02-20T10:55:14.505Z,80.53
2023-02-20T10:58:03.746Z,80.91
2023-02-20T11:00:55.107Z,81.92
2023-02-20T11:03:29.591Z,81.70
2023-02-20T11:06:01.856Z,81.58
2023-02-20T11:08:29.007Z,81.01
2023-02-20T11:11:21.774Z,79.95
2023-02-20T11:13:49.058Z,80.46
2023-02-20T11:16:29.557Z,78.76
2023-02-20T11:19:41.122Z,78.40
2023-02-20T11:22:08.480Z,79.07
2023-02-20T11:24:41.345Z,78.12
2023-02-20T11:27:22.011Z,78.29
2023-02-20T11:30:04.493Z,77.52
2023-02-20T11:32:38.595Z,77.49
2023-02-20T11:35:17.353Z,77.43
2023-02-20T11:37:55.844Z,77.07
2023-02-20T11:40:32.090Z,75.72
2023-02-20T11:43:14.473Z,76.68
2023-02-20T11:45:41.976Z,74.88
2023-02-20T11:48:19.501Z,75.64
2023-02-20T11:50:50.672Z,75.82
2023-02-20T11:53:23.472Z,75.62
2023-02-20T11:56:11.613Z,74.57
2023-02-20T11:58:40.710Z,73.77
2023-02-20T12:01:29.150Z,74.42
2023-02-20T12:03:58.612Z,73.74
2023-02-20T12:06:36.198Z,74.10
2023-02-20T12:09:07.204Z,74.02
2023-02-20T12:11:34.198Z,73.94
2023-02-20T12:14:01.347Z,73.03
2023-02-20T12:16:47.246Z,73.44
2023-02-20T12:19:56.466Z,72.66
2023-02-20T12:22:33.795Z,74.52
2023-02-20T12:25:18.072Z,72.36
2023-02-20T12:28:12.613Z,72.37
2023-02-20T12:30:54.876Z,72.23
2023-02-20T12:33:55.715Z,72.91
2023-02-20T12:36:28.149Z,72.95
2023-02-20T12:39:01.068Z,72.33
2023-02-20T12:41:55.151Z,73.07
2023-02-20T12:44:53.637Z,71.35
2023-02-20T12:47:31.199Z,72.11
2023-02-20T12:50:24.527Z,71.03
2023-02-20T12:53:21.389Z,71.74
2023-02-20T12:56:30.842Z,71.00
2023-02-20T12:59:31.895Z,72.10
2023-02-20T13:02:15.814Z,70.73
2023-02-20T13:04:53.225Z,72.00
2023-02-20T13:07:44.151Z,70.75
2023-02-20T13:10:30.946Z,70.26
2023-02-20T13:12:59.200Z,70.51
2023-02-20T13:15:36.413Z,69.99
2023-02-20T13:18:27.707Z,70.51
2023-02-20T13:21:00.910Z,70.16
2023-02-20T13:23:35.487Z,70.35
2023-02-20T13:26:03.974Z,68.30
2023-02-20T13:28:45.778Z,69.35
2023-02-20T13:31:48.356Z,68.93
2023-02-20T13:34:15.343Z,68.94
2023-02-20T13:36:48.694Z,68.65
2023-02-20T13:39:25.290Z,69.03
2023-02-20T13:41:56.233Z,68.63
2023-02-20T13:44:34.977Z,68.89
2023-02-20T13:47:31.613Z,67.95
2023-02-20T13:50:00.423Z,68.09
2023-02-20T13:52:39.173Z,67.24
2023-02-20T13:55:15.124Z,67.11
2023-02-20T13:57:49.435Z,66.85
2023-02-20T14:00:51.546Z,67.12
2023-02-20T14:03:31.553Z,67.61
2023-02-20T14:06:15.199Z,66.63
2023-02-20T14:08:48.253Z,66.45
2023-02-20T14:11:32.977Z,66.23
2023-02-20T14:14:08.112Z,65.95
2023-02-20T14:16:44.393Z,63.08
2023-02-20T14:19:28.040Z,63.24
2023-02-20T14:21:55.402Z,63.76
2023-02-20T14:24:27.278Z,63.26
2023-02-20T14:26:59.394Z,63.02
2023-02-20T14:29:36.608Z,61.79
2023-02-20T14:32:06.315Z,61.24
2023-02-20T14:35:32.797Z,61.94
2023-02-20T14:38:27.141Z,63.86
2023-02-20T14:40:54.210Z,64.50
2023-02-20T14:43:24.761Z,65.28
2023-02-20T14:46:06.849Z,65.28
2023-02-20T14:48:40.882Z,63.57
2023-02-20T14:51:25.133Z,60.70
2023-02-20T14:54:00.657Z,61.13
2023-02-20T14:56:28.376Z,60.44
2023-02-20T14:58:55.412Z,60.44
2023-02-20T15:01:28.314Z,59.66
2023-02-20T15:04:06.759Z,60.38
2023-02-20T15:06:39.076Z,60.13
2023-02-20T15:09:20.994Z,59.35
2023-02-20T15:11:58.171Z,60.46
2023-02-20T15:14:29.294Z,60.57
2023-02-20T15:17:14.717Z,60.59
2023-02-20T15:19:42.604Z,60.72
2023-02-20T15:22:30.548Z,61.16
2023-02-20T15:25:25.681Z,61.41
2023-02-20T15:28:16.702Z,61.50
2023-02-20T15:31:08.531Z,62.30
2023-02-20T15:33:51.946Z,61.89
2023-02-20T15:36:23.711Z,61.91
2023-02-20T15:38:55.456Z,62.09
2023-02-20T15:41:23.845Z,62.57
2023-02-20T15:43:52.062Z,62.01
2023-02-20T15:46:20.172Z,62.10
2023-02-20T15:48:47.599Z,62.07
2023-02-20T15:51:21.573Z,63.27
2023-02-20T15:53:51.823Z,63.28
2023-02-20T15:56:19.176Z,65.07
2023-02-20T15:58:47.377Z,66.89
2023-02-20T16:01:14.718Z,67.89
2023-02-20T16:03:51.582Z,68.73
2023-02-20T16:06:22.220Z,68.31
2023-02-20T16:08:51.799Z,67.52
2023-02-20T16:11:22.080Z,66.73
2023-02-20T16:13:56.282Z,65.69
2023-02-20T16:16:38.465Z,65.20
2023-02-20T16:19:24.077Z,65.39
2023-02-20T16:21:59.410Z,64.90
2023-02-20T16:24:26.973Z,65.72
2023-02-20T16:26:54.483Z,66.12
2023-02-20T16:29:33.810Z,67.01
2023-02-20T16:32:01.022Z,68.22
2023-02-20T16:34:33.983Z,68.75
2023-02-20T16:37:02.621Z,69.53
2023-02-20T16:39:29.545Z,70.52
2023-02-20T16:41:58.798Z,70.46
2023-02-20T16:44:39.004Z,70.99
2023-02-20T16:47:10.110Z,71.68
2023-02-20T16:49:38.871Z,71.58
2023-02-20T16:52:33.818Z,71.48
2023-02-20T16:55:04.004Z,72.33
2023-02-20T16:57:30.968Z,72.33
2023-02-20T17:00:01.299Z,72.60
2023-02-20T17:02:31.599Z,72.39
2023-02-20T17:05:00.193Z,72.80
2023-02-20T17:07:27.417Z,73.25
2023-02-20T17:09:55.400Z,73.29
2023-02-20T17:12:24.048Z,73.58
2023-02-20T17:14:53.512Z,73.63
2023-02-20T17:17:21.538Z,73.79
2023-02-20T17:19:48.687Z,73.81
2023-02-20T17:22:15.762Z,74.16
2023-02-20T17:24:43.828Z,74.41
2023-02-20T17:27:12.730Z,74.50
2023-02-20T17:29:42.364Z,74.65
2023-02-20T17:32:09.560Z,74.63
2023-02-20T17:34:36.571Z,74.54
2023-02-20T17:37:04.010Z,74.77
2023-02-20T17:39:30.971Z,74.67
2023-02-20T17:41:58.327Z,74.85
2023-02-20T17:44:29.226Z,75.23
2023-02-20T17:46:59.615Z,75.30
2023-02-20T17:49:28.178Z,75.40
2023-02-20T17:52:00.662Z,76.12
2023-02-20T17:54:34.304Z,75.85
2023-02-20T17:57:02.277Z,75.76
2023-02-20T17:59:30.460Z,76.42
2023-02-20T18:01:57.586Z,76.69
2023-02-20T18:04:25.852Z,76.35
2023-02-20T18:06:54.300Z,77.29
2023-02-20T18:09:21.772Z,76.47
2023-02-20T18:11:48.866Z,77.00
2023-02-20T18:14:15.917Z,77.31
2023-02-20T18:16:44.355Z,77.42
2023-02-20T18:19:13.832Z,77.14
2023-02-20T18:21:42.823Z,77.15
2023-02-20T18:24:10.908Z,77.85
2023-02-20T18:26:38.613Z,77.88
2023-02-20T18:29:05.672Z,77.70
2023-02-20T18:31:33.091Z,77.88
2023-02-20T18:34:01.643Z,78.05
2023-02-20T18:36:29.784Z,78.43
2023-02-20T18:38:57.993Z,78.67
2023-02-20T18:41:26.074Z,78.99
2023-02-20T18:43:53.522Z,79.09
2023-02-20T18:46:33.890Z,79.64
2023-02-20T18:49:02.398Z,79.82
2023-02-20T18:51:39.583Z,80.39
2023-02-20T18:54:10.576Z,80.15
2023-02-20T18:56:38.939Z,80.19
2023-02-20T18:59:06.027Z,80.66
2023-02-20T19:01:33.987Z,81.09
2023-02-20T19:04:03.915Z,81.11
2023-02-20T19:06:36.856Z,81.17
2023-02-20T19:09:05.007Z,80.70
2023-02-20T19:11:31.987Z,80.95
2023-02-20T19:13:59.648Z,81.36
2023-02-20T19:16:27.000Z,80.82
2023-02-20T19:18:53.956Z,81.40
2023-02-20T19:21:21.446Z,80.96
2023-02-20T19:23:48.849Z,80.73
2023-02-20T19:26:16.270Z,81.60
2023-02-20T19:28:44.519Z,81.42
2023-02-20T19:31:13.254Z,81.01
2023-02-20T19:33:40.949Z,81.25
2023-02-20T19:36:13.198Z,81.70
2023-02-20T19:38:40.158Z,82.26
2023-02-20T19:41:07.104Z,82.46
2023-02-20T19:43:34.187Z,81.31
2023-02-20T19:46:01.173Z,82.56
2023-02-20T19:48:28.636Z,82.15
2023-02-20T19:50:56.743Z,81.68
2023-02-20T19:53:24.317Z,82.40
2023-02-20T19:55:54.455Z,84.21
2023-02-20T19:58:21.952Z,83.70
2023-02-20T20:00:48.951Z,83.09
2023-02-20T20:03:15.973Z,83.87
2023-02-20T20:05:42.909Z,83.69
2023-02-20T20:08:10.086Z,84.17
2023-02-20T20:10:37.178Z,85.13
2023-02-20T20:13:06.422Z,85.54
2023-02-20T20:15:34.595Z,86.21
2023-02-20T20:18:02.083Z,86.46
2023-02-20T20:20:31.856Z,86.51
2023-02-20T20:23:02.412Z,87.19
2023-02-20T20:25:29.551Z,87.23
2023-02-20T20:28:00.985Z,87.99
2023-02-20T20:30:30.807Z,88.02
2023-02-20T20:32:58.243Z,88.10
2023-02-20T20:35:27.625Z,88.12
2023-02-20T20:37:55.102Z,87.98
2023-02-20T20:40:23.831Z,88.23
2023-02-20T20:42:50.849Z,88.22
2023-02-20T20:45:18.769Z,88.67
2023-02-20T20:47:46.800Z,88.35
2023-02-20T20:50:18.853Z,88.62
2023-02-20T20:52:45.950Z,88.94
2023-02-20T20:55:13.927Z,88.59
2023-02-20T20:57:41.370Z,89.13
2023-02-20T21:00:21.599Z,88.69
2023-02-20T21:02:48.663Z,88.46
2023-02-20T21:05:18.021Z,88.78
2023-02-20T21:07:45.055Z,88.16
2023-02-20T21:10:12.248Z,88.30
2023-02-20T21:12:39.669Z,88.74
2023-02-20T21:15:09.536Z,88.39
2023-02-20T21:17:39.353Z,88.53
2023-02-20T21:20:11.034Z,88.37
2023-02-20T21:22:37.980Z,88.39
2023-02-20T21:25:05.989Z,88.00
2023-02-20T21:27:33.038Z,89.13
2023-02-20T21:30:00.092Z,89.34
2023-02-20T21:32:27.156Z,89.77
2023-02-20T21:34:54.044Z,89.63
2023-02-20T21:37:21.270Z,89.78
2023-02-20T21:39:48.322Z,90.02
2023-02-20T21:42:34.081Z,90.31
2023-02-20T21:45:01.105Z,90.12
2023-02-20T21:47:28.075Z,90.19
2023-02-20T21:49:54.965Z,89.84
2023-02-20T21:52:21.887Z,90.31
2023-02-20T21:54:51.712Z,89.76
2023-02-20T21:57:19.648Z,90.49
2023-02-20T21:59:46.472Z,90.75
2023-02-20T22:02:18.420Z,90.55
2023-02-20T22:04:45.416Z,90.57
2023-02-20T22:07:31.769Z,91.04
2023-02-20T22:10:17.510Z,91.51
2023-02-20T22:13:02.781Z,90.54
2023-02-20T22:15:47.956Z,90.65
2023-02-20T22:18:33.566Z,91.22
2023-02-20T22:21:19.164Z,90.58
2023-02-20T22:24:04.790Z,91.89
2023-02-20T22:26:50.015Z,91.55
2023-02-20T22:29:35.404Z,90.65
2023-02-20T22:32:20.909Z,90.17
2023-02-20T22:35:12.077Z,90.47
2023-02-20T22:37:58.265Z,89.81
2023-02-20T22:40:43.696Z,89.85
2023-02-20T22:43:28.930Z,89.61
2023-02-20T22:46:14.419Z,89.94
2023-02-20T22:48:59.962Z,89.20
2023-02-20T22:51:45.706Z,89.65
2023-02-20T22:54:31.483Z,88.75
2023-02-20T22:57:16.785Z,88.95
2023-02-20T23:00:02.940Z,89.06
2023-02-20T23:02:48.801Z,89.25
2023-02-20T23:05:34.239Z,89.40
2023-02-20T23:08:20.689Z,88.57
2023-02-20T23:11:06.144Z,87.65
2023-02-20T23:13:51.485Z,87.63
2023-02-20T23:16:42.179Z,87.14
2023-02-20T23:19:29.230Z,87.47
2023-02-20T23:22:15.018Z,87.56
2023-02-20T23:25:00.682Z,87.32
2023-02-20T23:27:47.107Z,86.74
2023-02-20T23:30:33.203Z,86.73
2023-02-20T23:33:19.142Z,87.20
2023-02-20T23:36:04.948Z,86.97
2023-02-20T23:38:50.848Z,87.35
2023-02-20T23:41:36.560Z,88.07
2023-02-20T23:44:25.059Z,88.44
2023-02-20T23:47:10.753Z,87.82
2023-02-20T23:49:56.391Z,87.57
2023-02-20T23:52:41.731Z,87.88
2023-02-20T23:55:27.004Z,87.84
2023-02-20T23:58:12.435Z,88.15
